createdAt,value
2017-10-17T00:00:33.345Z,16.20
2017-10-17T00:03:02.486Z,16.20
2017-10-17T00:05:31.641Z,16.10
2017-10-17T00:08:00.794Z,16.20
2017-10-17T00:10:30.692Z,16.30
2017-10-17T00:12:59.904Z,16.20
2017-10-17T00:15:29.029Z,16.50
2017-10-17T00:17:58.525Z,16.60
2017-10-17T00:20:28.400Z,16.50
2017-10-17T00:22:57.493Z,16.40
2017-10-17T00:25:26.642Z,16.30
2017-10-17T00:27:56.042Z,16.10
2017-10-17T00:30:25.270Z,16.00
2017-10-17T00:32:56.340Z,16.10
2017-10-17T00:35:25.707Z,16.00
2017-10-17T00:37:58.177Z,16.00
2017-10-17T00:40:27.334Z,16.00
2017-10-17T00:42:59.165Z,16.10
2017-10-17T00:45:28.304Z,16.10
2017-10-17T00:47:57.638Z,16.20
2017-10-17T00:50:26.784Z,16.20
2017-10-17T00:52:56.635Z,16.60
2017-10-17T00:55:25.745Z,16.50
2017-10-17T00:57:54.878Z,16.70
2017-10-17T01:00:24.077Z,16.70
2017-10-17T01:02:53.405Z,16.60
2017-10-17T01:05:23.372Z,16.20
2017-10-17T01:07:52.497Z,16.20
2017-10-17T01:10:21.590Z,16.10
2017-10-17T01:12:50.694Z,16.00
2017-10-17T01:15:20.593Z,16.10
2017-10-17T01:17:50.189Z,16.00
2017-10-17T01:20:20.320Z,16.00
2017-10-17T01:22:49.458Z,16.00
2017-10-17T01:25:18.573Z,16.10
2017-10-17T01:27:50.090Z,16.20
2017-10-17T01:30:19.971Z,16.10
2017-10-17T01:32:49.113Z,16.00
2017-10-17T01:35:19.154Z,15.80
2017-10-17T01:37:48.347Z,15.70
2017-10-17T01:40:18.158Z,15.60
2017-10-17T01:42:47.270Z,15.50
2017-10-17T01:45:16.423Z,15.50
2017-10-17T01:47:45.641Z,15.30
2017-10-17T01:50:15.677Z,14.80
2017-10-17T01:52:44.810Z,14.80
2017-10-17T01:55:13.890Z,14.70
2017-10-17T01:57:43.093Z,14.40
2017-10-17T02:00:12.416Z,14.20
2017-10-17T02:02:42.328Z,13.90
2017-10-17T02:05:12.501Z,13.80
2017-10-17T02:07:41.606Z,13.70
2017-10-17T02:10:10.891Z,13.60
2017-10-17T02:12:40.038Z,13.50
2017-10-17T02:15:09.921Z,13.40
2017-10-17T02:17:39.117Z,13.30
2017-10-17T02:20:08.290Z,13.30
2017-10-17T02:22:37.450Z,13.20
2017-10-17T02:25:07.423Z,13.40
2017-10-17T02:27:36.563Z,13.40
2017-10-17T02:30:06.564Z,14.10
2017-10-17T02:32:35.658Z,14.00
2017-10-17T02:35:04.726Z,14.30
2017-10-17T02:37:33.861Z,14.40
2017-10-17T02:40:03.800Z,14.50
2017-10-17T02:42:33.304Z,14.40
2017-10-17T02:45:02.510Z,14.50
2017-10-17T02:47:32.506Z,14.70
2017-10-17T02:50:02.479Z,14.80
2017-10-17T02:52:31.646Z,14.80
2017-10-17T02:55:00.804Z,14.90
2017-10-17T02:57:30.722Z,15.00
2017-10-17T03:00:00.679Z,15.10
2017-10-17T03:02:29.877Z,15.00
2017-10-17T03:04:59.087Z,15.20
2017-10-17T03:07:28.947Z,15.20
2017-10-17T03:09:58.892Z,15.20
2017-10-17T03:12:28.105Z,15.20
2017-10-17T03:14:57.201Z,15.30
2017-10-17T03:17:26.376Z,15.40
2017-10-17T03:19:55.493Z,15.50
2017-10-17T03:22:24.629Z,15.50
2017-10-17T03:24:53.988Z,15.50
2017-10-17T03:27:23.209Z,15.40
2017-10-17T03:29:52.349Z,15.40
2017-10-17T03:32:22.232Z,15.30
2017-10-17T03:34:51.477Z,15.20
2017-10-17T03:37:20.706Z,15.30
2017-10-17T03:39:50.077Z,15.20
2017-10-17T03:42:19.358Z,15.20
2017-10-17T03:44:49.337Z,15.30
2017-10-17T03:47:18.534Z,15.20
2017-10-17T03:49:47.744Z,15.30
2017-10-17T03:52:16.875Z,15.30
2017-10-17T03:54:46.073Z,15.30
2017-10-17T03:57:15.574Z,15.30
2017-10-17T03:59:44.731Z,15.30
2017-10-17T04:02:13.880Z,15.40
2017-10-17T04:04:43.009Z,15.50
2017-10-17T04:07:12.690Z,15.50
2017-10-17T04:09:41.824Z,15.60
2017-10-17T04:12:11.007Z,15.70
2017-10-17T04:14:40.163Z,15.60
2017-10-17T04:17:09.473Z,15.50
2017-10-17T04:19:38.742Z,15.40
2017-10-17T04:22:07.901Z,15.40
2017-10-17T04:24:37.057Z,15.30
2017-10-17T04:27:06.450Z,15.20
2017-10-17T04:29:36.453Z,15.20
2017-10-17T04:32:05.639Z,15.10
2017-10-17T04:34:34.834Z,15.20
2017-10-17T04:37:05.342Z,15.10
2017-10-17T04:39:34.445Z,15.10
2017-10-17T04:42:04.798Z,15.20
2017-10-17T04:44:40.822Z,15.20
2017-10-17T04:47:10.041Z,15.10
2017-10-17T04:49:39.185Z,15.20
2017-10-17T04:52:08.454Z,15.10
2017-10-17T04:54:38.449Z,15.10
2017-10-17T04:57:10.513Z,15.10
2017-10-17T04:59:40.005Z,15.10
2017-10-17T05:02:09.249Z,15.10
2017-10-17T05:04:39.201Z,15.00
2017-10-17T05:07:08.473Z,14.90
2017-10-17T05:09:37.704Z,14.90
2017-10-17T05:12:06.886Z,14.90
2017-10-17T05:14:36.057Z,15.00
2017-10-17T05:17:07.800Z,15.00
2017-10-17T05:19:37.802Z,14.90
2017-10-17T05:22:11.379Z,14.90
2017-10-17T05:27:41.003Z,14.80
2017-10-17T05:30:10.223Z,14.90
2017-10-17T05:32:39.565Z,14.90
2017-10-17T05:35:08.783Z,15.00
2017-10-17T05:37:37.966Z,14.90
2017-10-17T05:40:07.225Z,14.90
2017-10-17T05:42:36.403Z,14.80
2017-10-17T05:45:05.574Z,14.70
2017-10-17T05:47:34.717Z,14.70
2017-10-17T05:50:03.924Z,14.60
2017-10-17T05:52:33.923Z,14.60
2017-10-17T05:55:03.659Z,14.60
2017-10-17T05:57:33.384Z,14.60
2017-10-17T06:00:02.454Z,14.50
2017-10-17T06:02:31.454Z,14.60
2017-10-17T06:05:01.243Z,14.50
2017-10-17T06:07:30.284Z,14.50
2017-10-17T06:09:59.418Z,14.50
2017-10-17T06:12:28.406Z,14.50
2017-10-17T06:14:58.214Z,14.50
2017-10-17T06:17:27.194Z,14.40
2017-10-17T06:19:56.199Z,14.50
2017-10-17T06:22:25.256Z,14.50
2017-10-17T06:24:55.107Z,14.60
2017-10-17T06:27:24.070Z,14.50
2017-10-17T06:29:53.069Z,14.60
2017-10-17T06:32:22.165Z,14.60
2017-10-17T06:34:51.179Z,14.70
2017-10-17T06:37:20.942Z,14.70
2017-10-17T06:39:50.694Z,14.70
2017-10-17T06:42:19.772Z,14.70
2017-10-17T06:44:48.858Z,14.70
2017-10-17T06:47:18.826Z,14.70
2017-10-17T06:49:48.918Z,14.60
2017-10-17T06:52:17.996Z,14.70
2017-10-17T06:54:46.997Z,14.80
2017-10-17T06:57:16.045Z,14.80
2017-10-17T06:59:45.105Z,14.80
2017-10-17T07:02:14.130Z,14.80
2017-10-17T07:04:43.161Z,14.90
2017-10-17T07:07:12.225Z,14.80
2017-10-17T07:09:41.262Z,14.80
2017-10-17T07:12:10.347Z,14.90
2017-10-17T07:14:39.326Z,14.90
2017-10-17T07:17:09.099Z,14.90
2017-10-17T07:19:38.126Z,14.90
2017-10-17T07:22:08.132Z,15.00
2017-10-17T07:24:38.038Z,15.00
2017-10-17T07:27:07.188Z,15.00
2017-10-17T07:29:36.351Z,15.00
2017-10-17T07:32:06.201Z,15.10
2017-10-17T07:34:36.991Z,15.00
2017-10-17T07:37:06.804Z,15.20
2017-10-17T07:39:35.898Z,15.10
2017-10-17T07:42:05.703Z,15.30
2017-10-17T07:44:35.483Z,15.30
2017-10-17T07:47:04.518Z,15.20
2017-10-17T07:49:34.332Z,15.40
2017-10-17T07:52:04.274Z,15.50
2017-10-17T07:54:33.318Z,15.50
2017-10-17T07:57:03.238Z,15.90
2017-10-17T07:59:32.912Z,15.90
2017-10-17T08:02:01.954Z,16.10
2017-10-17T08:04:31.791Z,16.60
2017-10-17T08:07:01.000Z,16.60
2017-10-17T08:09:30.180Z,16.60
2017-10-17T08:12:00.376Z,16.80
2017-10-17T08:14:30.206Z,16.80
2017-10-17T08:16:59.196Z,16.80
2017-10-17T08:19:29.010Z,17.60
2017-10-17T08:21:58.803Z,18.10
2017-10-17T08:24:27.863Z,18.00
2017-10-17T08:26:57.052Z,18.30
2017-10-17T08:29:26.166Z,18.90
2017-10-17T08:31:55.210Z,19.30
2017-10-17T08:34:24.213Z,19.50
2017-10-17T08:36:53.221Z,19.90
2017-10-17T08:39:25.258Z,19.70
2017-10-17T08:41:55.471Z,19.70
2017-10-17T08:44:25.316Z,19.90
2017-10-17T08:46:54.335Z,19.80
2017-10-17T08:49:23.418Z,19.70
2017-10-17T08:51:52.585Z,19.50
2017-10-17T08:54:22.783Z,19.00
2017-10-17T08:56:52.584Z,19.00
2017-10-17T08:59:22.316Z,19.20
2017-10-17T09:01:52.058Z,19.20
2017-10-17T09:04:21.064Z,19.20
2017-10-17T09:06:50.066Z,19.10
2017-10-17T09:09:19.077Z,19.30
2017-10-17T09:11:48.258Z,19.50
2017-10-17T09:14:18.169Z,20.50
2017-10-17T09:16:47.178Z,20.50
2017-10-17T09:19:16.183Z,20.90
2017-10-17T09:21:45.254Z,21.40
2017-10-17T09:24:14.257Z,21.40
2017-10-17T09:26:44.043Z,22.30
2017-10-17T09:29:13.101Z,22.20
2017-10-17T09:31:42.132Z,22.40
2017-10-17T09:34:11.280Z,22.10
2017-10-17T09:36:41.142Z,22.00
2017-10-17T09:39:11.199Z,22.00
2017-10-17T09:41:40.374Z,21.40
2017-10-17T09:44:10.285Z,20.40
2017-10-17T09:46:39.282Z,20.30
2017-10-17T09:49:08.282Z,20.10
2017-10-17T09:51:37.290Z,20.40
2017-10-17T09:54:07.158Z,20.70
2017-10-17T09:56:36.984Z,20.60
2017-10-17T09:59:06.046Z,20.60
2017-10-17T10:01:35.150Z,21.20
2017-10-17T10:04:04.276Z,21.60
2017-10-17T10:06:34.170Z,21.70
2017-10-17T10:09:03.183Z,21.70
2017-10-17T10:11:32.286Z,22.10
2017-10-17T10:14:02.058Z,22.30
2017-10-17T10:16:31.081Z,22.20
2017-10-17T10:19:00.257Z,22.40
2017-10-17T10:21:29.362Z,22.40
2017-10-17T10:23:58.497Z,22.50
2017-10-17T10:26:27.664Z,22.50
2017-10-17T10:28:56.654Z,22.50
2017-10-17T10:31:25.677Z,22.50
2017-10-17T10:33:54.694Z,22.60
2017-10-17T10:36:24.462Z,22.40
2017-10-17T10:38:54.346Z,22.40
2017-10-17T10:41:24.181Z,22.50
2017-10-17T10:43:54.057Z,22.50
2017-10-17T10:46:33.840Z,22.50
2017-10-17T10:49:02.862Z,22.60
2017-10-17T10:51:31.847Z,22.50
2017-10-17T10:54:15.398Z,22.40
2017-10-17T10:56:45.182Z,22.20
2017-10-17T10:59:14.237Z,22.20
2017-10-17T11:01:43.259Z,22.40
2017-10-17T11:04:12.704Z,22.30
2017-10-17T11:06:41.857Z,22.40
2017-10-17T11:09:10.973Z,22.60
2017-10-17T11:11:40.162Z,22.80
2017-10-17T11:14:10.129Z,23.30
2017-10-17T11:16:46.244Z,23.40
2017-10-17T11:19:15.358Z,23.30
2017-10-17T11:21:46.087Z,23.60
2017-10-17T11:24:15.928Z,23.80
2017-10-17T11:26:45.683Z,24.00
2017-10-17T11:29:15.450Z,24.30
2017-10-17T11:31:44.545Z,24.20
2017-10-17T11:34:19.849Z,24.50
2017-10-17T11:36:48.880Z,24.50
2017-10-17T11:39:22.154Z,24.80
2017-10-17T11:42:06.159Z,24.50
2017-10-17T11:44:39.609Z,24.50
2017-10-17T11:47:09.512Z,24.70
2017-10-17T11:49:39.455Z,24.40
2017-10-17T11:52:08.519Z,24.40
2017-10-17T11:54:38.373Z,24.10
2017-10-17T11:57:07.393Z,24.10
2017-10-17T11:59:41.961Z,24.40
2017-10-17T12:02:11.834Z,24.40
2017-10-17T12:04:41.670Z,24.60
2017-10-17T12:07:11.468Z,24.70
2017-10-17T12:09:40.669Z,24.60
2017-10-17T12:12:09.969Z,24.50
2017-10-17T12:14:39.224Z,24.60
2017-10-17T12:17:08.205Z,24.40
2017-10-17T12:19:37.993Z,23.80
2017-10-17T12:22:07.774Z,23.70
2017-10-17T12:24:38.424Z,23.60
2017-10-17T12:27:09.006Z,23.60
2017-10-17T12:29:38.063Z,23.40
2017-10-17T12:32:07.094Z,23.30
2017-10-17T12:34:36.199Z,23.20
2017-10-17T12:37:05.297Z,23.20
2017-10-17T12:39:34.484Z,23.30
2017-10-17T12:42:03.497Z,23.40
2017-10-17T12:44:32.519Z,23.50
2017-10-17T12:47:01.664Z,23.40
2017-10-17T12:49:30.802Z,23.50
2017-10-17T12:51:59.810Z,23.50
2017-10-17T12:54:28.871Z,23.60
2017-10-17T12:56:57.850Z,23.50
2017-10-17T12:59:26.931Z,23.70
2017-10-17T13:01:56.071Z,23.70
2017-10-17T13:04:25.265Z,23.90
2017-10-17T13:06:55.202Z,24.30
2017-10-17T13:09:25.026Z,24.40
2017-10-17T13:11:54.820Z,24.40
2017-10-17T13:14:25.457Z,24.50
2017-10-17T13:16:56.550Z,24.60
2017-10-17T13:19:25.816Z,24.50
2017-10-17T13:21:56.505Z,24.70
2017-10-17T13:24:25.642Z,24.70
2017-10-17T13:26:55.455Z,24.90
2017-10-17T13:29:25.256Z,25.20
2017-10-17T13:31:55.151Z,25.30
2017-10-17T13:34:24.291Z,25.20
2017-10-17T13:36:54.122Z,25.30
2017-10-17T13:39:23.180Z,25.20
2017-10-17T13:41:53.729Z,25.20
2017-10-17T13:44:22.776Z,25.10
2017-10-17T13:46:52.814Z,25.00
2017-10-17T13:49:24.565Z,24.80
2017-10-17T13:51:54.421Z,24.40
2017-10-17T13:54:23.591Z,24.40
2017-10-17T13:56:53.399Z,24.80
2017-10-17T13:59:23.318Z,24.80
2017-10-17T14:01:53.190Z,24.70
2017-10-17T14:04:22.259Z,24.60
2017-10-17T14:06:51.441Z,24.40
2017-10-17T14:09:20.598Z,24.20
2017-10-17T14:11:49.652Z,23.80
2017-10-17T14:14:18.784Z,23.50
2017-10-17T14:16:48.611Z,23.10
2017-10-17T14:19:18.628Z,23.00
2017-10-17T14:21:47.676Z,23.00
2017-10-17T14:24:18.184Z,22.20
2017-10-17T14:26:48.808Z,21.90
2017-10-17T14:29:18.655Z,21.60
2017-10-17T14:31:47.851Z,21.50
2017-10-17T14:34:16.892Z,21.20
2017-10-17T14:36:45.907Z,21.30
2017-10-17T14:39:14.883Z,21.40
2017-10-17T14:41:44.759Z,21.10
2017-10-17T14:44:14.807Z,21.00
2017-10-17T14:46:44.599Z,21.00
2017-10-17T14:49:13.676Z,20.90
2017-10-17T14:51:42.840Z,21.00
2017-10-17T14:54:12.782Z,20.90
2017-10-17T14:56:41.902Z,20.80
2017-10-17T14:59:10.999Z,20.60
2017-10-17T15:01:40.090Z,20.70
2017-10-17T15:04:09.261Z,20.70
2017-10-17T15:06:38.253Z,20.70
2017-10-17T15:09:07.271Z,20.70
2017-10-17T15:11:38.151Z,20.50
2017-10-17T15:14:07.943Z,20.30
2017-10-17T15:16:37.001Z,20.20
2017-10-17T15:19:06.070Z,20.10
2017-10-17T15:21:35.914Z,20.00
2017-10-17T15:24:04.940Z,19.90
2017-10-17T15:26:33.997Z,19.90
2017-10-17T15:29:04.239Z,19.70
2017-10-17T15:31:33.242Z,19.60
2017-10-17T15:34:02.557Z,19.60
2017-10-17T15:36:31.853Z,19.50
2017-10-17T15:39:01.697Z,19.50
2017-10-17T15:41:30.743Z,19.40
2017-10-17T15:43:59.925Z,19.40
2017-10-17T15:46:28.974Z,19.30
2017-10-17T15:48:58.113Z,19.30
2017-10-17T15:51:27.218Z,19.20
2017-10-17T15:53:56.286Z,19.10
2017-10-17T15:56:25.666Z,19.00
2017-10-17T15:58:55.648Z,18.70
2017-10-17T16:01:24.700Z,18.70
2017-10-17T16:03:54.523Z,18.40
2017-10-17T16:06:23.693Z,18.40
2017-10-17T16:08:53.544Z,18.20
2017-10-17T16:11:23.005Z,18.10
2017-10-17T16:13:52.194Z,18.10
2017-10-17T16:16:22.113Z,18.00
2017-10-17T16:18:51.174Z,17.90
2017-10-17T16:21:20.427Z,17.90
2017-10-17T16:23:50.337Z,17.70
2017-10-17T16:26:19.516Z,17.70
2017-10-17T16:28:48.556Z,17.60
2017-10-17T16:31:17.654Z,17.40
2017-10-17T16:33:46.742Z,17.10
2017-10-17T16:36:15.835Z,17.10
2017-10-17T16:38:45.638Z,16.90
2017-10-17T16:41:16.460Z,16.90
2017-10-17T16:43:45.523Z,16.80
2017-10-17T16:46:15.322Z,16.70
2017-10-17T16:48:46.720Z,16.60
2017-10-17T16:51:16.150Z,16.40
2017-10-17T16:53:46.018Z,16.20
2017-10-17T16:56:15.830Z,16.20
2017-10-17T16:58:45.642Z,16.20
2017-10-17T17:01:15.427Z,16.10
2017-10-17T17:03:45.548Z,16.00
2017-10-17T17:06:14.591Z,15.90
2017-10-17T17:08:43.599Z,15.90
2017-10-17T17:11:13.480Z,15.80
2017-10-17T17:13:42.510Z,16.00
2017-10-17T17:16:11.585Z,16.10
2017-10-17T17:18:40.641Z,16.10
2017-10-17T17:21:09.708Z,16.10
2017-10-17T17:23:39.845Z,16.20
2017-10-17T17:26:08.969Z,16.30
2017-10-17T17:28:38.765Z,16.60
2017-10-17T17:31:08.596Z,16.80
2017-10-17T17:33:38.372Z,16.70
2017-10-17T17:36:07.401Z,16.70
2017-10-17T17:38:36.433Z,16.70
2017-10-17T17:41:05.511Z,16.60
2017-10-17T17:43:34.598Z,16.50
2017-10-17T17:46:13.723Z,16.30
2017-10-17T17:48:42.896Z,16.30
2017-10-17T17:51:12.956Z,16.20
2017-10-17T17:53:42.858Z,16.10
2017-10-17T17:56:11.986Z,16.00
2017-10-17T17:58:41.036Z,16.00
2017-10-17T18:01:10.930Z,15.80
2017-10-17T18:03:40.845Z,15.70
2017-10-17T18:06:10.797Z,15.60
2017-10-17T18:08:39.870Z,15.50
2017-10-17T18:11:09.129Z,15.50
2017-10-17T18:13:38.302Z,15.50
2017-10-17T18:16:08.216Z,15.50
2017-10-17T18:18:38.011Z,15.40
2017-10-17T18:21:07.182Z,15.30
2017-10-17T18:23:37.076Z,15.30
2017-10-17T18:26:06.267Z,15.20
2017-10-17T18:28:36.126Z,14.90
2017-10-17T18:31:05.275Z,14.90
2017-10-17T18:33:34.413Z,14.70
2017-10-17T18:36:03.605Z,14.70
2017-10-17T18:38:33.586Z,14.80
2017-10-17T18:41:03.100Z,14.80
2017-10-17T18:43:32.356Z,14.80
2017-10-17T18:46:01.538Z,14.80
2017-10-17T18:48:31.803Z,14.90
2017-10-17T18:51:00.905Z,14.80
2017-10-17T18:53:31.538Z,14.50
2017-10-17T18:56:02.586Z,14.50
2017-10-17T18:58:32.508Z,14.50
2017-10-17T19:01:03.066Z,14.40
2017-10-17T19:03:32.230Z,14.40
2017-10-17T19:06:02.393Z,14.50
2017-10-17T19:08:32.336Z,14.60
2017-10-17T19:11:02.228Z,14.70
2017-10-17T19:13:31.591Z,14.70
2017-10-17T19:16:01.585Z,14.70
2017-10-17T19:18:31.204Z,14.60
2017-10-17T19:21:01.658Z,14.60
2017-10-17T19:23:30.757Z,14.50
2017-10-17T19:26:02.743Z,14.50
2017-10-17T19:28:31.944Z,14.50
2017-10-17T19:31:01.707Z,14.50
2017-10-17T19:33:32.098Z,14.40
2017-10-17T19:37:05.954Z,14.30
2017-10-17T19:39:35.599Z,14.30
2017-10-17T19:42:05.040Z,14.30
2017-10-17T19:44:36.476Z,14.10
2017-10-17T19:47:06.064Z,14.10
2017-10-17T19:49:35.285Z,14.10
2017-10-17T19:52:05.068Z,14.10
2017-10-17T19:54:34.501Z,14.10
2017-10-17T19:57:04.402Z,14.10
2017-10-17T19:59:35.836Z,14.10
2017-10-17T20:02:05.170Z,14.20
2017-10-17T20:04:34.283Z,14.10
2017-10-17T20:07:04.297Z,14.10
2017-10-17T20:09:33.548Z,14.00
2017-10-17T20:12:07.506Z,14.10
2017-10-17T20:14:36.591Z,14.10
2017-10-17T20:17:05.688Z,14.00
2017-10-17T20:19:34.892Z,14.00
2017-10-17T20:22:04.841Z,13.90
2017-10-17T20:24:35.184Z,13.90
2017-10-17T20:27:05.213Z,13.80
2017-10-17T20:29:35.181Z,13.80
2017-10-17T20:32:05.226Z,13.80
2017-10-17T20:34:34.472Z,13.70
2017-10-17T20:37:05.385Z,13.70
2017-10-17T20:39:34.445Z,13.60
2017-10-17T20:42:03.616Z,13.70
2017-10-17T20:44:33.387Z,13.60
2017-10-17T20:47:02.530Z,13.60
2017-10-17T20:49:32.384Z,13.40
2017-10-17T20:52:01.498Z,13.30
2017-10-17T20:54:30.515Z,13.30
2017-10-17T20:57:00.070Z,13.30
2017-10-17T20:59:29.081Z,13.30
2017-10-17T21:01:58.192Z,13.30
2017-10-17T21:04:27.203Z,13.30
2017-10-17T21:06:56.174Z,13.30
2017-10-17T21:09:25.993Z,13.20
2017-10-17T21:11:55.046Z,13.20
2017-10-17T21:14:24.109Z,13.20
2017-10-17T21:16:53.898Z,13.10
2017-10-17T21:19:23.049Z,13.00
2017-10-17T21:21:52.066Z,13.20
2017-10-17T21:24:21.183Z,13.20
2017-10-17T21:26:50.473Z,13.20
2017-10-17T21:29:20.343Z,13.10
2017-10-17T21:31:50.150Z,13.10
2017-10-17T21:34:19.995Z,13.00
2017-10-17T21:36:49.001Z,12.90
2017-10-17T21:39:18.036Z,13.00
2017-10-17T21:41:47.147Z,13.00
2017-10-17T21:44:16.976Z,13.00
2017-10-17T21:46:46.002Z,13.00
2017-10-17T21:49:14.986Z,13.00
2017-10-17T21:51:43.990Z,13.00
2017-10-17T21:54:13.077Z,12.90
2017-10-17T21:56:42.812Z,12.70
2017-10-17T21:59:11.861Z,12.70
2017-10-17T22:01:40.862Z,12.70
2017-10-17T22:04:09.848Z,12.70
2017-10-17T22:06:38.827Z,12.80
2017-10-17T22:09:07.887Z,12.80
2017-10-17T22:11:36.849Z,12.80
2017-10-17T22:14:06.578Z,12.80
2017-10-17T22:16:35.874Z,12.80
2017-10-17T22:19:04.845Z,12.90
2017-10-17T22:21:34.681Z,13.10
2017-10-17T22:24:03.856Z,13.10
2017-10-17T22:26:32.972Z,13.20
2017-10-17T22:29:02.344Z,13.30
2017-10-17T22:31:31.337Z,13.40
2017-10-17T22:34:01.192Z,13.20
2017-10-17T22:36:30.959Z,13.10
2017-10-17T22:39:00.764Z,13.00
2017-10-17T22:41:29.780Z,12.90
2017-10-17T22:43:58.874Z,13.00
2017-10-17T22:46:27.857Z,12.90
2017-10-17T22:48:57.596Z,12.80
2017-10-17T22:51:26.537Z,12.80
2017-10-17T22:53:55.569Z,12.80
2017-10-17T22:56:25.385Z,12.50
2017-10-17T22:58:54.381Z,12.50
2017-10-17T23:01:23.445Z,12.50
2017-10-17T23:03:52.443Z,12.40
2017-10-17T23:06:22.213Z,12.40
2017-10-17T23:08:51.990Z,12.40
2017-10-17T23:14:20.279Z,12.40
2017-10-17T23:16:58.084Z,12.50
2017-10-17T23:19:38.351Z,12.50
2017-10-17T23:23:26.657Z,12.50
2017-10-17T23:25:55.645Z,12.40
2017-10-17T23:28:24.660Z,12.20
2017-10-17T23:30:53.697Z,12.20
2017-10-17T23:33:22.629Z,12.20
2017-10-17T23:35:51.894Z,12.20
2017-10-17T23:38:21.632Z,12.20
2017-10-17T23:40:51.405Z,12.20
2017-10-17T23:43:20.365Z,12.10
2017-10-17T23:45:49.325Z,12.10
2017-10-17T23:48:19.062Z,12.00
2017-10-17T23:51:02.536Z,12.00
2017-10-17T23:53:31.523Z,11.90
2017-10-17T23:56:00.456Z,11.90
2017-10-17T23:58:29.429Z,11.70
